sensor_id;sensor_type;location;lat;lon;timestamp;P1;durP1;ratioP1;P2;durP2;ratioP2
3523;SDS011;1776;53.330;11.498;2024-02-26T00:00:10;3.20;;;1.70;;
3523;SDS011;1776;53.330;11.498;2024-02-26T00:02:36;2.13;;;1.60;;
3523;SDS011;1776;53.330;11.498;2024-02-26T00:05:04;1.70;;;1.40;;
3523;SDS011;1776;53.330;11.498;2024-02-26T00:07:33;3.60;;;1.60;;
3523;SDS011;1776;53.330;11.498;2024-02-26T00:09:59;2.10;;;1.50;;
3523;SDS011;1776;53.330;11.498;2024-02-26T00:12:24;1.67;;;1.53;;
3523;SDS011;1776;53.330;11.498;2024-02-26T00:14:49;1.73;;;1.43;;
3523;SDS011;1776;53.330;11.498;2024-02-26T00:17:15;1.40;;;1.20;;
3523;SDS011;1776;53.330;11.498;2024-02-26T00:19:40;1.97;;;1.50;;
3523;SDS011;1776;53.330;11.498;2024-02-26T00:22:06;4.80;;;1.63;;
3523;SDS011;1776;53.330;11.498;2024-02-26T00:24:31;2.93;;;1.70;;
3523;SDS011;1776;53.330;11.498;2024-02-26T00:26:57;1.53;;;1.20;;
3523;SDS011;1776;53.330;11.498;2024-02-26T00:29:22;1.47;;;1.37;;
3523;SDS011;1776;53.330;11.498;2024-02-26T00:31:48;2.17;;;1.60;;
3523;SDS011;1776;53.330;11.498;2024-02-26T00:34:13;2.33;;;1.43;;
3523;SDS011;1776;53.330;11.498;2024-02-26T00:36:38;1.90;;;1.70;;
3523;SDS011;1776;53.330;11.498;2024-02-26T00:39:04;4.10;;;1.90;;
3523;SDS011;1776;53.330;11.498;2024-02-26T00:41:29;1.70;;;1.53;;
3523;SDS011;1776;53.330;11.498;2024-02-26T00:43:54;1.50;;;1.40;;
3523;SDS011;1776;53.330;11.498;2024-02-26T00:46:20;1.40;;;1.30;;
3523;SDS011;1776;53.330;11.498;2024-02-26T00:48:45;1.90;;;1.63;;
3523;SDS011;1776;53.330;11.498;2024-02-26T00:51:10;2.67;;;1.83;;
3523;SDS011;1776;53.330;11.498;2024-02-26T00:53:36;2.07;;;1.40;;
3523;SDS011;1776;53.330;11.498;2024-02-26T00:56:01;1.63;;;1.50;;
3523;SDS011;1776;53.330;11.498;2024-02-26T00:58:26;4.13;;;1.90;;
3523;SDS011;1776;53.330;11.498;2024-02-26T01:00:52;2.23;;;1.80;;
3523;SDS011;1776;53.330;11.498;2024-02-26T01:03:17;2.33;;;1.60;;
3523;SDS011;1776;53.330;11.498;2024-02-26T01:05:43;2.70;;;2.03;;
3523;SDS011;1776;53.330;11.498;2024-02-26T01:08:09;2.27;;;2.00;;
3523;SDS011;1776;53.330;11.498;2024-02-26T01:10:34;1.77;;;1.67;;
3523;SDS011;1776;53.330;11.498;2024-02-26T01:12:59;3.13;;;1.70;;
3523;SDS011;1776;53.330;11.498;2024-02-26T01:15:26;2.80;;;1.73;;
3523;SDS011;1776;53.330;11.498;2024-02-26T01:17:51;2.80;;;1.90;;
3523;SDS011;1776;53.330;11.498;2024-02-26T01:20:17;2.43;;;1.63;;
3523;SDS011;1776;53.330;11.498;2024-02-26T01:22:43;1.87;;;1.77;;
3523;SDS011;1776;53.330;11.498;2024-02-26T01:25:08;3.20;;;1.90;;
3523;SDS011;1776;53.330;11.498;2024-02-26T01:27:34;2.53;;;2.00;;
3523;SDS011;1776;53.330;11.498;2024-02-26T01:30:01;2.47;;;2.00;;
3523;SDS011;1776;53.330;11.498;2024-02-26T01:32:28;1.93;;;1.53;;
3523;SDS011;1776;53.330;11.498;2024-02-26T01:34:54;2.13;;;1.80;;
3523;SDS011;1776;53.330;11.498;2024-02-26T01:37:19;3.40;;;1.57;;
3523;SDS011;1776;53.330;11.498;2024-02-26T01:39:45;2.17;;;1.50;;
3523;SDS011;1776;53.330;11.498;2024-02-26T01:42:10;2.27;;;1.97;;
3523;SDS011;1776;53.330;11.498;2024-02-26T01:44:35;3.07;;;2.33;;
3523;SDS011;1776;53.330;11.498;2024-02-26T01:47:01;3.07;;;2.50;;
3523;SDS011;1776;53.330;11.498;2024-02-26T01:49:27;3.70;;;1.77;;
3523;SDS011;1776;53.330;11.498;2024-02-26T01:51:54;3.20;;;2.10;;
3523;SDS011;1776;53.330;11.498;2024-02-26T01:54:19;2.20;;;2.10;;
3523;SDS011;1776;53.330;11.498;2024-02-26T01:56:45;2.03;;;1.83;;
3523;SDS011;1776;53.330;11.498;2024-02-26T01:59:10;3.33;;;1.90;;
3523;SDS011;1776;53.330;11.498;2024-02-26T02:01:36;2.00;;;1.77;;
3523;SDS011;1776;53.330;11.498;2024-02-26T02:04:02;2.17;;;1.93;;
3523;SDS011;1776;53.330;11.498;2024-02-26T02:06:27;3.20;;;1.73;;
3523;SDS011;1776;53.330;11.498;2024-02-26T02:08:56;2.70;;;2.07;;
3523;SDS011;1776;53.330;11.498;2024-02-26T02:11:22;2.13;;;1.90;;
3523;SDS011;1776;53.330;11.498;2024-02-26T02:13:47;2.50;;;2.00;;
3523;SDS011;1776;53.330;11.498;2024-02-26T02:16:12;2.23;;;2.07;;
3523;SDS011;1776;53.330;11.498;2024-02-26T02:18:38;2.60;;;2.23;;
3523;SDS011;1776;53.330;11.498;2024-02-26T02:21:04;4.73;;;2.43;;
3523;SDS011;1776;53.330;11.498;2024-02-26T02:23:29;3.87;;;3.20;;
3523;SDS011;1776;53.330;11.498;2024-02-26T02:25:54;2.60;;;2.07;;
3523;SDS011;1776;53.330;11.498;2024-02-26T02:28:22;3.50;;;3.20;;
3523;SDS011;1776;53.330;11.498;2024-02-26T02:30:50;4.00;;;2.50;;
3523;SDS011;1776;53.330;11.498;2024-02-26T02:33:15;3.23;;;2.60;;
3523;SDS011;1776;53.330;11.498;2024-02-26T02:35:41;2.20;;;2.00;;
3523;SDS011;1776;53.330;11.498;2024-02-26T02:38:06;4.20;;;2.37;;
3523;SDS011;1776;53.330;11.498;2024-02-26T02:40:32;2.50;;;2.07;;
3523;SDS011;1776;53.330;11.498;2024-02-26T02:42:57;4.00;;;2.27;;
3523;SDS011;1776;53.330;11.498;2024-02-26T02:45:22;2.00;;;1.70;;
3523;SDS011;1776;53.330;11.498;2024-02-26T02:47:48;2.03;;;1.83;;
3523;SDS011;1776;53.330;11.498;2024-02-26T02:50:13;2.33;;;1.57;;
3523;SDS011;1776;53.330;11.498;2024-02-26T02:52:38;1.97;;;1.73;;
3523;SDS011;1776;53.330;11.498;2024-02-26T02:55:03;2.10;;;1.90;;
3523;SDS011;1776;53.330;11.498;2024-02-26T02:57:29;2.30;;;2.10;;
3523;SDS011;1776;53.330;11.498;2024-02-26T02:59:55;4.50;;;1.77;;
3523;SDS011;1776;53.330;11.498;2024-02-26T03:02:20;2.10;;;1.83;;
3523;SDS011;1776;53.330;11.498;2024-02-26T03:04:45;2.03;;;1.93;;
3523;SDS011;1776;53.330;11.498;2024-02-26T03:07:11;1.70;;;1.50;;
3523;SDS011;1776;53.330;11.498;2024-02-26T03:09:36;2.17;;;1.97;;
3523;SDS011;1776;53.330;11.498;2024-02-26T03:12:01;2.13;;;1.90;;
3523;SDS011;1776;53.330;11.498;2024-02-26T03:14:26;3.10;;;1.80;;
3523;SDS011;1776;53.330;11.498;2024-02-26T03:16:56;6.10;;;1.50;;
3523;SDS011;1776;53.330;11.498;2024-02-26T03:19:22;2.63;;;2.43;;
3523;SDS011;1776;53.330;11.498;2024-02-26T03:21:47;2.20;;;1.97;;
3523;SDS011;1776;53.330;11.498;2024-02-26T03:24:12;2.33;;;2.10;;
3523;SDS011;1776;53.330;11.498;2024-02-26T03:26:38;2.07;;;1.80;;
3523;SDS011;1776;53.330;11.498;2024-02-26T03:29:03;2.10;;;1.80;;
3523;SDS011;1776;53.330;11.498;2024-02-26T03:31:29;1.90;;;1.63;;
3523;SDS011;1776;53.330;11.498;2024-02-26T03:33:54;3.10;;;2.13;;
3523;SDS011;1776;53.330;11.498;2024-02-26T03:36:19;2.40;;;1.63;;
3523;SDS011;1776;53.330;11.498;2024-02-26T03:38:46;2.10;;;2.00;;
3523;SDS011;1776;53.330;11.498;2024-02-26T03:41:11;2.23;;;1.90;;
3523;SDS011;1776;53.330;11.498;2024-02-26T03:43:37;1.80;;;1.60;;
3523;SDS011;1776;53.330;11.498;2024-02-26T03:46:02;2.37;;;2.17;;
3523;SDS011;1776;53.330;11.498;2024-02-26T03:48:27;2.40;;;2.20;;
3523;SDS011;1776;53.330;11.498;2024-02-26T03:50:53;2.33;;;1.60;;
3523;SDS011;1776;53.330;11.498;2024-02-26T03:53:18;2.23;;;1.90;;
3523;SDS011;1776;53.330;11.498;2024-02-26T03:55:43;1.97;;;1.77;;
3523;SDS011;1776;53.330;11.498;2024-02-26T03:58:08;6.53;;;2.30;;
3523;SDS011;1776;53.330;11.498;2024-02-26T04:00:34;3.53;;;2.13;;
3523;SDS011;1776;53.330;11.498;2024-02-26T04:02:59;2.20;;;2.00;;
3523;SDS011;1776;53.330;11.498;2024-02-26T04:05:24;4.60;;;2.17;;
3523;SDS011;1776;53.330;11.498;2024-02-26T04:07:50;3.60;;;2.40;;
3523;SDS011;1776;53.330;11.498;2024-02-26T04:10:15;6.43;;;2.10;;
3523;SDS011;1776;53.330;11.498;2024-02-26T04:12:41;2.70;;;2.27;;
3523;SDS011;1776;53.330;11.498;2024-02-26T04:15:08;2.23;;;2.00;;
3523;SDS011;1776;53.330;11.498;2024-02-26T04:17:34;3.80;;;1.87;;
3523;SDS011;1776;53.330;11.498;2024-02-26T04:19:59;2.77;;;2.43;;
3523;SDS011;1776;53.330;11.498;2024-02-26T04:22:24;3.20;;;2.50;;
3523;SDS011;1776;53.330;11.498;2024-02-26T04:24:49;2.20;;;1.97;;
3523;SDS011;1776;53.330;11.498;2024-02-26T04:27:15;2.30;;;2.10;;
3523;SDS011;1776;53.330;11.498;2024-02-26T04:29:40;4.30;;;1.90;;
3523;SDS011;1776;53.330;11.498;2024-02-26T04:32:05;2.97;;;2.30;;
3523;SDS011;1776;53.330;11.498;2024-02-26T04:34:31;3.97;;;2.43;;
3523;SDS011;1776;53.330;11.498;2024-02-26T04:36:56;2.40;;;2.00;;
3523;SDS011;1776;53.330;11.498;2024-02-26T04:39:22;4.93;;;2.10;;
3523;SDS011;1776;53.330;11.498;2024-02-26T04:41:47;3.33;;;2.13;;
3523;SDS011;1776;53.330;11.498;2024-02-26T04:44:12;2.43;;;2.23;;
3523;SDS011;1776;53.330;11.498;2024-02-26T04:46:37;4.80;;;2.90;;
3523;SDS011;1776;53.330;11.498;2024-02-26T04:49:03;3.20;;;1.93;;
3523;SDS011;1776;53.330;11.498;2024-02-26T04:51:28;5.13;;;2.23;;
3523;SDS011;1776;53.330;11.498;2024-02-26T04:53:53;2.07;;;1.57;;
3523;SDS011;1776;53.330;11.498;2024-02-26T04:56:20;3.73;;;1.80;;
3523;SDS011;1776;53.330;11.498;2024-02-26T04:58:46;2.50;;;2.30;;
3523;SDS011;1776;53.330;11.498;2024-02-26T05:01:11;3.70;;;2.17;;
3523;SDS011;1776;53.330;11.498;2024-02-26T05:03:36;2.23;;;2.10;;
3523;SDS011;1776;53.330;11.498;2024-02-26T05:06:01;3.50;;;2.70;;
3523;SDS011;1776;53.330;11.498;2024-02-26T05:08:27;2.03;;;1.83;;
3523;SDS011;1776;53.330;11.498;2024-02-26T05:10:53;2.23;;;2.03;;
3523;SDS011;1776;53.330;11.498;2024-02-26T05:13:18;3.07;;;2.33;;
3523;SDS011;1776;53.330;11.498;2024-02-26T05:15:43;3.40;;;2.20;;
3523;SDS011;1776;53.330;11.498;2024-02-26T05:18:11;3.03;;;2.23;;
3523;SDS011;1776;53.330;11.498;2024-02-26T05:20:37;3.03;;;1.93;;
3523;SDS011;1776;53.330;11.498;2024-02-26T05:23:02;2.83;;;2.33;;
3523;SDS011;1776;53.330;11.498;2024-02-26T05:25:28;3.30;;;1.70;;
3523;SDS011;1776;53.330;11.498;2024-02-26T05:27:54;3.80;;;2.37;;
3523;SDS011;1776;53.330;11.498;2024-02-26T05:30:19;3.50;;;2.00;;
3523;SDS011;1776;53.330;11.498;2024-02-26T05:32:44;2.20;;;2.00;;
3523;SDS011;1776;53.330;11.498;2024-02-26T05:35:09;5.27;;;2.17;;
3523;SDS011;1776;53.330;11.498;2024-02-26T05:37:35;3.37;;;1.80;;
3523;SDS011;1776;53.330;11.498;2024-02-26T05:40:00;3.70;;;2.20;;
3523;SDS011;1776;53.330;11.498;2024-02-26T05:42:25;3.70;;;2.20;;
3523;SDS011;1776;53.330;11.498;2024-02-26T05:44:50;2.53;;;1.87;;
3523;SDS011;1776;53.330;11.498;2024-02-26T05:47:16;1.77;;;1.63;;
3523;SDS011;1776;53.330;11.498;2024-02-26T05:49:42;2.10;;;1.90;;
3523;SDS011;1776;53.330;11.498;2024-02-26T05:52:07;3.57;;;2.20;;
3523;SDS011;1776;53.330;11.498;2024-02-26T05:54:33;2.00;;;1.80;;
3523;SDS011;1776;53.330;11.498;2024-02-26T05:56:58;3.00;;;2.27;;
3523;SDS011;1776;53.330;11.498;2024-02-26T05:59:23;2.70;;;2.20;;
3523;SDS011;1776;53.330;11.498;2024-02-26T06:01:49;3.57;;;2.30;;
3523;SDS011;1776;53.330;11.498;2024-02-26T06:04:14;2.70;;;2.13;;
3523;SDS011;1776;53.330;11.498;2024-02-26T06:06:39;1.97;;;1.80;;
3523;SDS011;1776;53.330;11.498;2024-02-26T06:09:05;1.77;;;1.63;;
3523;SDS011;1776;53.330;11.498;2024-02-26T06:11:30;4.30;;;1.80;;
3523;SDS011;1776;53.330;11.498;2024-02-26T06:13:56;3.97;;;2.57;;
3523;SDS011;1776;53.330;11.498;2024-02-26T06:16:21;3.33;;;3.03;;
3523;SDS011;1776;53.330;11.498;2024-02-26T06:18:46;6.40;;;4.23;;
3523;SDS011;1776;53.330;11.498;2024-02-26T06:21:12;6.40;;;3.60;;
3523;SDS011;1776;53.330;11.498;2024-02-26T06:23:38;7.60;;;3.57;;
3523;SDS011;1776;53.330;11.498;2024-02-26T06:26:06;5.07;;;4.60;;
3523;SDS011;1776;53.330;11.498;2024-02-26T06:28:31;7.07;;;6.10;;
3523;SDS011;1776;53.330;11.498;2024-02-26T06:31:00;48.03;;;17.37;;
3523;SDS011;1776;53.330;11.498;2024-02-26T06:33:25;45.33;;;21.10;;
3523;SDS011;1776;53.330;11.498;2024-02-26T06:35:51;39.80;;;15.77;;
3523;SDS011;1776;53.330;11.498;2024-02-26T06:38:16;24.70;;;10.90;;
3523;SDS011;1776;53.330;11.498;2024-02-26T06:40:42;11.77;;;6.47;;
3523;SDS011;1776;53.330;11.498;2024-02-26T06:43:09;5.00;;;4.00;;
3523;SDS011;1776;53.330;11.498;2024-02-26T06:45:34;5.27;;;3.50;;
3523;SDS011;1776;53.330;11.498;2024-02-26T06:47:59;5.63;;;3.30;;
3523;SDS011;1776;53.330;11.498;2024-02-26T06:50:24;3.20;;;2.90;;
3523;SDS011;1776;53.330;11.498;2024-02-26T06:52:50;5.00;;;2.77;;
3523;SDS011;1776;53.330;11.498;2024-02-26T06:55:15;5.10;;;3.07;;
3523;SDS011;1776;53.330;11.498;2024-02-26T06:57:40;6.40;;;3.40;;
3523;SDS011;1776;53.330;11.498;2024-02-26T07:00:05;4.50;;;3.17;;
3523;SDS011;1776;53.330;11.498;2024-02-26T07:02:31;4.27;;;3.10;;
3523;SDS011;1776;53.330;11.498;2024-02-26T07:04:57;2.83;;;2.63;;
3523;SDS011;1776;53.330;11.498;2024-02-26T07:07:23;3.97;;;3.33;;
3523;SDS011;1776;53.330;11.498;2024-02-26T07:09:49;2.57;;;2.27;;
3523;SDS011;1776;53.330;11.498;2024-02-26T07:12:14;3.27;;;2.60;;
3523;SDS011;1776;53.330;11.498;2024-02-26T07:14:41;3.67;;;3.00;;
3523;SDS011;1776;53.330;11.498;2024-02-26T07:17:06;2.50;;;1.87;;
3523;SDS011;1776;53.330;11.498;2024-02-26T07:19:31;3.27;;;2.97;;
3523;SDS011;1776;53.330;11.498;2024-02-26T07:21:57;3.83;;;2.10;;
3523;SDS011;1776;53.330;11.498;2024-02-26T07:24:22;6.50;;;3.03;;
3523;SDS011;1776;53.330;11.498;2024-02-26T07:26:47;3.27;;;2.50;;
3523;SDS011;1776;53.330;11.498;2024-02-26T07:29:12;3.17;;;2.43;;
3523;SDS011;1776;53.330;11.498;2024-02-26T07:31:38;3.07;;;2.30;;
3523;SDS011;1776;53.330;11.498;2024-02-26T07:34:03;2.63;;;2.37;;
3523;SDS011;1776;53.330;11.498;2024-02-26T07:36:28;4.20;;;2.60;;
3523;SDS011;1776;53.330;11.498;2024-02-26T07:38:53;3.10;;;2.80;;
3523;SDS011;1776;53.330;11.498;2024-02-26T07:41:19;5.40;;;4.50;;
3523;SDS011;1776;53.330;11.498;2024-02-26T07:43:45;7.90;;;4.03;;
3523;SDS011;1776;53.330;11.498;2024-02-26T07:46:13;4.23;;;3.80;;
3523;SDS011;1776;53.330;11.498;2024-02-26T07:48:38;6.27;;;4.27;;
3523;SDS011;1776;53.330;11.498;2024-02-26T07:51:04;4.80;;;3.03;;
3523;SDS011;1776;53.330;11.498;2024-02-26T07:53:29;6.37;;;4.57;;
3523;SDS011;1776;53.330;11.498;2024-02-26T07:55:55;16.80;;;7.67;;
3523;SDS011;1776;53.330;11.498;2024-02-26T07:58:21;10.73;;;6.30;;
3523;SDS011;1776;53.330;11.498;2024-02-26T08:00:48;7.47;;;4.80;;
3523;SDS011;1776;53.330;11.498;2024-02-26T08:03:13;9.70;;;4.73;;
3523;SDS011;1776;53.330;11.498;2024-02-26T08:05:40;7.80;;;5.43;;
3523;SDS011;1776;53.330;11.498;2024-02-26T08:08:07;8.80;;;4.60;;
3523;SDS011;1776;53.330;11.498;2024-02-26T08:10:33;5.93;;;4.40;;
3523;SDS011;1776;53.330;11.498;2024-02-26T08:12:58;7.40;;;5.40;;
3523;SDS011;1776;53.330;11.498;2024-02-26T08:15:30;6.50;;;4.73;;
3523;SDS011;1776;53.330;11.498;2024-02-26T08:17:59;8.60;;;5.17;;
3523;SDS011;1776;53.330;11.498;2024-02-26T08:20:27;9.40;;;5.70;;
3523;SDS011;1776;53.330;11.498;2024-02-26T08:22:52;6.17;;;4.47;;
3523;SDS011;1776;53.330;11.498;2024-02-26T08:25:18;5.00;;;4.60;;
3523;SDS011;1776;53.330;11.498;2024-02-26T08:27:43;7.90;;;4.47;;
3523;SDS011;1776;53.330;11.498;2024-02-26T08:30:08;6.43;;;5.47;;
3523;SDS011;1776;53.330;11.498;2024-02-26T08:32:35;8.17;;;5.67;;
3523;SDS011;1776;53.330;11.498;2024-02-26T08:35:00;9.47;;;4.80;;
3523;SDS011;1776;53.330;11.498;2024-02-26T08:37:25;5.60;;;4.70;;
3523;SDS011;1776;53.330;11.498;2024-02-26T08:39:51;10.00;;;4.60;;
3523;SDS011;1776;53.330;11.498;2024-02-26T08:42:16;7.70;;;5.50;;
3523;SDS011;1776;53.330;11.498;2024-02-26T08:44:41;7.73;;;5.20;;
3523;SDS011;1776;53.330;11.498;2024-02-26T08:47:06;11.03;;;6.17;;
3523;SDS011;1776;53.330;11.498;2024-02-26T08:49:32;12.27;;;5.43;;
3523;SDS011;1776;53.330;11.498;2024-02-26T08:51:57;13.43;;;6.33;;
3523;SDS011;1776;53.330;11.498;2024-02-26T08:54:22;13.20;;;6.10;;
3523;SDS011;1776;53.330;11.498;2024-02-26T08:56:49;11.67;;;7.67;;
3523;SDS011;1776;53.330;11.498;2024-02-26T08:59:14;12.70;;;7.00;;
3523;SDS011;1776;53.330;11.498;2024-02-26T09:01:41;13.23;;;7.77;;
3523;SDS011;1776;53.330;11.498;2024-02-26T09:04:06;13.57;;;8.60;;
3523;SDS011;1776;53.330;11.498;2024-02-26T09:06:31;13.90;;;7.50;;
3523;SDS011;1776;53.330;11.498;2024-02-26T09:08:57;11.00;;;6.80;;
3523;SDS011;1776;53.330;11.498;2024-02-26T09:11:22;10.23;;;7.20;;
3523;SDS011;1776;53.330;11.498;2024-02-26T09:13:47;8.43;;;6.40;;
3523;SDS011;1776;53.330;11.498;2024-02-26T09:16:13;12.23;;;6.67;;
3523;SDS011;1776;53.330;11.498;2024-02-26T09:18:38;10.70;;;6.40;;
3523;SDS011;1776;53.330;11.498;2024-02-26T09:21:04;12.43;;;6.90;;
3523;SDS011;1776;53.330;11.498;2024-02-26T09:23:31;8.50;;;5.80;;
3523;SDS011;1776;53.330;11.498;2024-02-26T09:25:56;10.23;;;5.97;;
3523;SDS011;1776;53.330;11.498;2024-02-26T09:28:22;8.27;;;5.70;;
3523;SDS011;1776;53.330;11.498;2024-02-26T09:30:47;6.50;;;4.80;;
3523;SDS011;1776;53.330;11.498;2024-02-26T09:33:14;5.27;;;4.60;;
3523;SDS011;1776;53.330;11.498;2024-02-26T09:35:39;7.67;;;5.50;;
3523;SDS011;1776;53.330;11.498;2024-02-26T09:38:05;7.30;;;5.50;;
3523;SDS011;1776;53.330;11.498;2024-02-26T09:40:30;9.30;;;5.43;;
3523;SDS011;1776;53.330;11.498;2024-02-26T09:43:01;6.27;;;4.57;;
3523;SDS011;1776;53.330;11.498;2024-02-26T09:45:29;7.13;;;6.00;;
3523;SDS011;1776;53.330;11.498;2024-02-26T09:47:57;8.53;;;5.10;;
3523;SDS011;1776;53.330;11.498;2024-02-26T09:50:23;6.70;;;5.00;;
3523;SDS011;1776;53.330;11.498;2024-02-26T09:52:49;7.03;;;4.90;;
3523;SDS011;1776;53.330;11.498;2024-02-26T09:55:16;6.93;;;5.00;;
3523;SDS011;1776;53.330;11.498;2024-02-26T09:57:45;6.73;;;3.93;;
3523;SDS011;1776;53.330;11.498;2024-02-26T10:00:16;6.67;;;4.40;;
3523;SDS011;1776;53.330;11.498;2024-02-26T10:02:44;5.00;;;4.50;;
3523;SDS011;1776;53.330;11.498;2024-02-26T10:05:14;8.90;;;5.50;;
3523;SDS011;1776;53.330;11.498;2024-02-26T10:07:45;7.00;;;4.23;;
3523;SDS011;1776;53.330;11.498;2024-02-26T10:10:11;5.10;;;4.27;;
3523;SDS011;1776;53.330;11.498;2024-02-26T10:12:36;5.30;;;4.80;;
3523;SDS011;1776;53.330;11.498;2024-02-26T10:15:02;4.50;;;4.07;;
3523;SDS011;1776;53.330;11.498;2024-02-26T10:17:27;6.87;;;4.10;;
3523;SDS011;1776;53.330;11.498;2024-02-26T10:19:53;8.13;;;4.77;;
3523;SDS011;1776;53.330;11.498;2024-02-26T10:22:21;7.30;;;4.10;;
3523;SDS011;1776;53.330;11.498;2024-02-26T10:24:47;5.50;;;4.20;;
3523;SDS011;1776;53.330;11.498;2024-02-26T10:27:13;3.83;;;3.17;;
3523;SDS011;1776;53.330;11.498;2024-02-26T10:29:39;5.80;;;4.00;;
3523;SDS011;1776;53.330;11.498;2024-02-26T10:32:05;3.43;;;2.90;;
3523;SDS011;1776;53.330;11.498;2024-02-26T10:34:30;4.97;;;3.60;;
3523;SDS011;1776;53.330;11.498;2024-02-26T10:36:56;3.17;;;2.60;;
3523;SDS011;1776;53.330;11.498;2024-02-26T10:39:21;2.77;;;2.57;;
3523;SDS011;1776;53.330;11.498;2024-02-26T10:41:47;4.27;;;2.77;;
3523;SDS011;1776;53.330;11.498;2024-02-26T10:44:12;3.47;;;2.43;;
3523;SDS011;1776;53.330;11.498;2024-02-26T10:46:38;3.80;;;2.40;;
3523;SDS011;1776;53.330;11.498;2024-02-26T10:49:05;3.10;;;2.53;;
3523;SDS011;1776;53.330;11.498;2024-02-26T10:51:32;5.83;;;2.40;;
3523;SDS011;1776;53.330;11.498;2024-02-26T10:54:00;3.40;;;2.23;;
3523;SDS011;1776;53.330;11.498;2024-02-26T10:56:33;3.27;;;2.70;;
3523;SDS011;1776;53.330;11.498;2024-02-26T10:58:59;2.00;;;1.80;;
3523;SDS011;1776;53.330;11.498;2024-02-26T11:01:25;2.60;;;2.00;;
3523;SDS011;1776;53.330;11.498;2024-02-26T11:03:54;2.17;;;1.80;;
3523;SDS011;1776;53.330;11.498;2024-02-26T11:06:20;1.83;;;1.67;;
3523;SDS011;1776;53.330;11.498;2024-02-26T11:08:49;1.30;;;1.20;;
3523;SDS011;1776;53.330;11.498;2024-02-26T11:11:16;2.67;;;1.07;;
3523;SDS011;1776;53.330;11.498;2024-02-26T11:13:42;1.83;;;1.27;;
3523;SDS011;1776;53.330;11.498;2024-02-26T11:16:13;1.13;;;1.07;;
3523;SDS011;1776;53.330;11.498;2024-02-26T11:18:39;3.93;;;1.40;;
3523;SDS011;1776;53.330;11.498;2024-02-26T11:21:07;2.60;;;1.47;;
3523;SDS011;1776;53.330;11.498;2024-02-26T11:23:33;1.47;;;1.37;;
3523;SDS011;1776;53.330;11.498;2024-02-26T11:26:01;1.40;;;1.10;;
3523;SDS011;1776;53.330;11.498;2024-02-26T11:28:29;1.53;;;1.43;;
3523;SDS011;1776;53.330;11.498;2024-02-26T11:30:57;1.20;;;1.10;;
3523;SDS011;1776;53.330;11.498;2024-02-26T11:33:25;1.87;;;1.43;;
3523;SDS011;1776;53.330;11.498;2024-02-26T11:35:51;2.50;;;1.20;;
3523;SDS011;1776;53.330;11.498;2024-02-26T11:38:17;2.90;;;1.30;;
3523;SDS011;1776;53.330;11.498;2024-02-26T11:40:46;1.63;;;1.53;;
3523;SDS011;1776;53.330;11.498;2024-02-26T11:43:12;1.43;;;1.20;;
3523;SDS011;1776;53.330;11.498;2024-02-26T11:48:13;4.23;;;1.90;;
3523;SDS011;1776;53.330;11.498;2024-02-26T11:53:20;2.57;;;1.80;;
3523;SDS011;1776;53.330;11.498;2024-02-26T11:56:13;1.63;;;1.50;;
3523;SDS011;1776;53.330;11.498;2024-02-26T11:58:41;2.80;;;1.70;;
3523;SDS011;1776;53.330;11.498;2024-02-26T12:04:13;2.90;;;1.60;;
3523;SDS011;1776;53.330;11.498;2024-02-26T12:06:43;1.50;;;1.40;;
3523;SDS011;1776;53.330;11.498;2024-02-26T12:09:11;2.10;;;1.40;;
3523;SDS011;1776;53.330;11.498;2024-02-26T12:11:38;2.10;;;1.60;;
3523;SDS011;1776;53.330;11.498;2024-02-26T12:14:05;1.87;;;1.60;;
3523;SDS011;1776;53.330;11.498;2024-02-26T12:16:38;1.30;;;1.20;;
3523;SDS011;1776;53.330;11.498;2024-02-26T12:19:05;1.90;;;1.80;;
3523;SDS011;1776;53.330;11.498;2024-02-26T12:21:35;1.63;;;1.53;;
3523;SDS011;1776;53.330;11.498;2024-02-26T12:24:11;3.10;;;1.50;;
3523;SDS011;1776;53.330;11.498;2024-02-26T12:26:43;2.70;;;1.70;;
3523;SDS011;1776;53.330;11.498;2024-02-26T12:29:08;3.13;;;2.00;;
3523;SDS011;1776;53.330;11.498;2024-02-26T12:31:34;3.27;;;1.63;;
3523;SDS011;1776;53.330;11.498;2024-02-26T12:34:02;2.07;;;1.43;;
3523;SDS011;1776;53.330;11.498;2024-02-26T12:36:28;2.83;;;1.80;;
3523;SDS011;1776;53.330;11.498;2024-02-26T12:38:53;3.30;;;1.50;;
3523;SDS011;1776;53.330;11.498;2024-02-26T12:41:18;1.27;;;1.23;;
3523;SDS011;1776;53.330;11.498;2024-02-26T12:43:44;1.60;;;1.20;;
3523;SDS011;1776;53.330;11.498;2024-02-26T12:46:10;1.50;;;1.40;;
3523;SDS011;1776;53.330;11.498;2024-02-26T12:48:37;1.90;;;1.50;;
3523;SDS011;1776;53.330;11.498;2024-02-26T12:51:03;2.27;;;1.33;;
3523;SDS011;1776;53.330;11.498;2024-02-26T12:53:28;2.83;;;1.40;;
3523;SDS011;1776;53.330;11.498;2024-02-26T12:55:54;1.80;;;1.20;;
3523;SDS011;1776;53.330;11.498;2024-02-26T12:58:20;1.63;;;1.30;;
3523;SDS011;1776;53.330;11.498;2024-02-26T13:00:50;1.50;;;1.20;;
3523;SDS011;1776;53.330;11.498;2024-02-26T13:03:17;1.80;;;1.53;;
3523;SDS011;1776;53.330;11.498;2024-02-26T13:05:43;1.80;;;1.30;;
3523;SDS011;1776;53.330;11.498;2024-02-26T13:08:09;2.63;;;1.20;;
3523;SDS011;1776;53.330;11.498;2024-02-26T13:10:35;1.90;;;1.40;;
3523;SDS011;1776;53.330;11.498;2024-02-26T13:13:01;1.47;;;1.27;;
3523;SDS011;1776;53.330;11.498;2024-02-26T13:15:27;1.43;;;1.10;;
3523;SDS011;1776;53.330;11.498;2024-02-26T13:17:53;2.40;;;1.23;;
3523;SDS011;1776;53.330;11.498;2024-02-26T13:20:27;1.30;;;1.20;;
3523;SDS011;1776;53.330;11.498;2024-02-26T13:23:05;1.10;;;1.00;;
3523;SDS011;1776;53.330;11.498;2024-02-26T13:25:32;2.40;;;1.37;;
3523;SDS011;1776;53.330;11.498;2024-02-26T13:28:08;3.10;;;1.40;;
3523;SDS011;1776;53.330;11.498;2024-02-26T13:30:34;2.00;;;1.47;;
3523;SDS011;1776;53.330;11.498;2024-02-26T13:33:12;1.67;;;1.40;;
3523;SDS011;1776;53.330;11.498;2024-02-26T13:35:38;2.67;;;1.40;;
3523;SDS011;1776;53.330;11.498;2024-02-26T13:38:05;1.73;;;1.57;;
3523;SDS011;1776;53.330;11.498;2024-02-26T13:40:31;4.90;;;1.70;;
3523;SDS011;1776;53.330;11.498;2024-02-26T13:42:56;3.37;;;1.87;;
3523;SDS011;1776;53.330;11.498;2024-02-26T13:45:21;2.10;;;1.47;;
3523;SDS011;1776;53.330;11.498;2024-02-26T13:47:47;1.73;;;1.23;;
3523;SDS011;1776;53.330;11.498;2024-02-26T13:50:12;1.93;;;1.67;;
3523;SDS011;1776;53.330;11.498;2024-02-26T13:52:37;1.60;;;1.50;;
3523;SDS011;1776;53.330;11.498;2024-02-26T13:55:02;1.90;;;1.57;;
3523;SDS011;1776;53.330;11.498;2024-02-26T13:57:28;1.50;;;1.33;;
3523;SDS011;1776;53.330;11.498;2024-02-26T13:59:54;2.57;;;1.30;;
3523;SDS011;1776;53.330;11.498;2024-02-26T14:02:19;1.90;;;1.67;;
3523;SDS011;1776;53.330;11.498;2024-02-26T14:04:45;1.40;;;1.20;;
3523;SDS011;1776;53.330;11.498;2024-02-26T14:07:11;2.47;;;1.57;;
3523;SDS011;1776;53.330;11.498;2024-02-26T14:09:37;3.00;;;1.50;;
3523;SDS011;1776;53.330;11.498;2024-02-26T14:12:02;5.33;;;2.07;;
3523;SDS011;1776;53.330;11.498;2024-02-26T14:14:28;2.97;;;2.17;;
3523;SDS011;1776;53.330;11.498;2024-02-26T14:16:53;1.50;;;1.40;;
3523;SDS011;1776;53.330;11.498;2024-02-26T14:19:19;3.10;;;1.90;;
3523;SDS011;1776;53.330;11.498;2024-02-26T14:21:44;2.17;;;1.97;;
3523;SDS011;1776;53.330;11.498;2024-02-26T14:24:09;3.07;;;1.90;;
3523;SDS011;1776;53.330;11.498;2024-02-26T14:26:34;2.20;;;1.80;;
3523;SDS011;1776;53.330;11.498;2024-02-26T14:29:00;3.43;;;1.77;;
3523;SDS011;1776;53.330;11.498;2024-02-26T14:31:25;2.07;;;1.47;;
3523;SDS011;1776;53.330;11.498;2024-02-26T14:33:51;2.40;;;2.20;;
3523;SDS011;1776;53.330;11.498;2024-02-26T14:36:20;2.47;;;2.27;;
3523;SDS011;1776;53.330;11.498;2024-02-26T14:38:46;5.83;;;2.30;;
3523;SDS011;1776;53.330;11.498;2024-02-26T14:41:12;2.40;;;2.20;;
3523;SDS011;1776;53.330;11.498;2024-02-26T14:43:37;3.13;;;2.10;;
3523;SDS011;1776;53.330;11.498;2024-02-26T14:46:02;2.20;;;2.00;;
3523;SDS011;1776;53.330;11.498;2024-02-26T14:48:27;2.00;;;1.90;;
3523;SDS011;1776;53.330;11.498;2024-02-26T14:50:54;5.07;;;2.10;;
3523;SDS011;1776;53.330;11.498;2024-02-26T14:53:20;5.53;;;2.60;;
3523;SDS011;1776;53.330;11.498;2024-02-26T14:55:45;3.17;;;2.20;;
3523;SDS011;1776;53.330;11.498;2024-02-26T14:58:11;4.97;;;2.10;;
3523;SDS011;1776;53.330;11.498;2024-02-26T15:00:36;3.53;;;2.60;;